sensor_id;sensor_type;location;lat;lon;timestamp;pressure;altitude;pressure_sealevel;temperature;humidity
13581;BME280;6861;46.170;7.222;2023-11-19T00:00:23;96678.84;;;7.22;66.76
13581;BME280;6861;46.170;7.222;2023-11-19T00:02:51;96670.72;;;7.19;66.14
13581;BME280;6861;46.170;7.222;2023-11-19T00:05:21;96676.25;;;7.22;66.51
13581;BME280;6861;46.170;7.222;2023-11-19T00:07:49;96674.13;;;7.31;65.74
13581;BME280;6861;46.170;7.222;2023-11-19T00:10:17;96671.63;;;7.36;65.65
13581;BME280;6861;46.170;7.222;2023-11-19T00:12:48;96662.47;;;7.34;65.47
13581;BME280;6861;46.170;7.222;2023-11-19T00:15:18;96656.69;;;7.32;66.70
13581;BME280;6861;46.170;7.222;2023-11-19T00:17:47;96658.16;;;7.28;66.77
13581;BME280;6861;46.170;7.222;2023-11-19T00:20:18;96648.19;;;7.24;66.16
13581;BME280;6861;46.170;7.222;2023-11-19T00:22:48;96641.84;;;7.20;65.94
13581;BME280;6861;46.170;7.222;2023-11-19T00:25:19;96641.50;;;7.17;67.07
13581;BME280;6861;46.170;7.222;2023-11-19T00:27:49;96628.72;;;7.15;65.85
13581;BME280;6861;46.170;7.222;2023-11-19T00:30:17;96631.78;;;7.12;67.29
13581;BME280;6861;46.170;7.222;2023-11-19T00:32:46;96630.97;;;7.12;66.81
13581;BME280;6861;46.170;7.222;2023-11-19T00:35:14;96629.75;;;7.14;67.29
13581;BME280;6861;46.170;7.222;2023-11-19T00:37:43;96626.91;;;7.16;67.06
13581;BME280;6861;46.170;7.222;2023-11-19T00:40:14;96638.22;;;7.21;67.43
13581;BME280;6861;46.170;7.222;2023-11-19T00:42:45;96634.50;;;7.29;66.33
13581;BME280;6861;46.170;7.222;2023-11-19T00:45:14;96626.47;;;7.31;66.80
13581;BME280;6861;46.170;7.222;2023-11-19T00:47:43;96632.56;;;7.24;65.40
13581;BME280;6861;46.170;7.222;2023-11-19T00:50:11;96642.75;;;7.26;65.96
13581;BME280;6861;46.170;7.222;2023-11-19T00:52:40;96629.97;;;7.24;66.50
13581;BME280;6861;46.170;7.222;2023-11-19T00:55:09;96634.03;;;7.20;65.21
13581;BME280;6861;46.170;7.222;2023-11-19T00:57:38;96632.34;;;7.14;65.62
13581;BME280;6861;46.170;7.222;2023-11-19T01:00:07;96618.88;;;7.06;66.29
13581;BME280;6861;46.170;7.222;2023-11-19T01:02:46;96627.59;;;7.00;65.62
13581;BME280;6861;46.170;7.222;2023-11-19T01:05:17;96629.41;;;6.99;66.75
13581;BME280;6861;46.170;7.222;2023-11-19T01:07:48;96623.06;;;6.95;67.01
13581;BME280;6861;46.170;7.222;2023-11-19T01:10:17;96627.72;;;6.93;65.82
13581;BME280;6861;46.170;7.222;2023-11-19T01:12:47;96620.38;;;6.90;66.03
13581;BME280;6861;46.170;7.222;2023-11-19T01:15:15;96616.97;;;6.89;66.79
13581;BME280;6861;46.170;7.222;2023-11-19T01:17:45;96613.56;;;6.89;66.62
13581;BME280;6861;46.170;7.222;2023-11-19T01:20:16;96612.34;;;6.92;66.53
13581;BME280;6861;46.170;7.222;2023-11-19T01:22:47;96616.25;;;6.94;66.01
13581;BME280;6861;46.170;7.222;2023-11-19T01:25:16;96611.06;;;6.94;65.93
13581;BME280;6861;46.170;7.222;2023-11-19T01:27:46;96610.16;;;7.00;65.84
13581;BME280;6861;46.170;7.222;2023-11-19T01:30:14;96600.31;;;7.02;66.52
13581;BME280;6861;46.170;7.222;2023-11-19T01:32:43;96597.94;;;7.01;66.14
13581;BME280;6861;46.170;7.222;2023-11-19T01:35:11;96609.16;;;7.01;66.68
13581;BME280;6861;46.170;7.222;2023-11-19T01:37:40;96601.22;;;7.08;66.76
13581;BME280;6861;46.170;7.222;2023-11-19T01:40:09;96604.28;;;7.16;66.36
13581;BME280;6861;46.170;7.222;2023-11-19T01:42:38;96601.78;;;7.21;65.88
13581;BME280;6861;46.170;7.222;2023-11-19T01:45:10;96590.94;;;7.24;66.99
13581;BME280;6861;46.170;7.222;2023-11-19T01:47:48;96599.75;;;7.23;65.87
13581;BME280;6861;46.170;7.222;2023-11-19T01:50:17;96601.69;;;7.28;66.28
13581;BME280;6861;46.170;7.222;2023-11-19T01:52:46;96603.03;;;7.31;66.96
13581;BME280;6861;46.170;7.222;2023-11-19T01:55:14;96599.53;;;7.37;66.65
13581;BME280;6861;46.170;7.222;2023-11-19T01:57:43;96603.81;;;7.43;65.80
13581;BME280;6861;46.170;7.222;2023-11-19T02:00:13;96601.31;;;7.48;66.26
13581;BME280;6861;46.170;7.222;2023-11-19T02:02:43;96590.44;;;7.51;66.12
13581;BME280;6861;46.170;7.222;2023-11-19T02:05:13;96582.88;;;7.49;65.04
13581;BME280;6861;46.170;7.222;2023-11-19T02:07:42;96597.69;;;7.49;66.20
13581;BME280;6861;46.170;7.222;2023-11-19T02:10:10;96584.13;;;7.47;65.22
13581;BME280;6861;46.170;7.222;2023-11-19T02:12:41;96588.53;;;7.46;65.25
13581;BME280;6861;46.170;7.222;2023-11-19T02:15:13;96573.25;;;7.50;65.99
13581;BME280;6861;46.170;7.222;2023-11-19T02:17:41;96578.09;;;7.58;65.38
13581;BME280;6861;46.170;7.222;2023-11-19T02:20:10;96573.66;;;7.70;66.34
13581;BME280;6861;46.170;7.222;2023-11-19T02:22:41;96570.69;;;7.78;65.98
13581;BME280;6861;46.170;7.222;2023-11-19T02:25:14;96563.38;;;7.80;65.57
13581;BME280;6861;46.170;7.222;2023-11-19T02:27:57;96562.94;;;7.83;65.89
13581;BME280;6861;46.170;7.222;2023-11-19T02:30:26;96558.28;;;7.85;64.98
13581;BME280;6861;46.170;7.222;2023-11-19T02:32:56;96565.75;;;7.82;65.35
13581;BME280;6861;46.170;7.222;2023-11-19T02:35:25;96565.53;;;7.83;65.02
13581;BME280;6861;46.170;7.222;2023-11-19T02:37:54;96559.06;;;7.86;65.49
13581;BME280;6861;46.170;7.222;2023-11-19T02:40:23;96555.84;;;7.79;64.95
13581;BME280;6861;46.170;7.222;2023-11-19T02:42:52;96553.81;;;7.69;65.46
13581;BME280;6861;46.170;7.222;2023-11-19T02:45:24;96541.72;;;7.63;66.14
13581;BME280;6861;46.170;7.222;2023-11-19T02:47:53;96542.53;;;7.64;66.04
13581;BME280;6861;46.170;7.222;2023-11-19T02:50:22;96546.72;;;7.65;65.49
13581;BME280;6861;46.170;7.222;2023-11-19T02:52:55;96544.91;;;7.65;65.57
13581;BME280;6861;46.170;7.222;2023-11-19T02:55:24;96548.53;;;7.64;65.96
13581;BME280;6861;46.170;7.222;2023-11-19T02:57:55;96546.81;;;7.70;66.56
13581;BME280;6861;46.170;7.222;2023-11-19T03:00:27;96537.59;;;7.79;66.29
13581;BME280;6861;46.170;7.222;2023-11-19T03:03:00;96548.88;;;7.84;65.13
13581;BME280;6861;46.170;7.222;2023-11-19T03:05:37;96520.78;;;7.86;65.44
13581;BME280;6861;46.170;7.222;2023-11-19T03:08:07;96534.38;;;7.88;65.61
13581;BME280;6861;46.170;7.222;2023-11-19T03:10:35;96519.06;;;7.92;64.97
13581;BME280;6861;46.170;7.222;2023-11-19T03:13:03;96540.78;;;7.98;66.06
13581;BME280;6861;46.170;7.222;2023-11-19T03:15:33;96530.13;;;7.99;64.76
13581;BME280;6861;46.170;7.222;2023-11-19T03:18:01;96525.84;;;7.93;65.84
13581;BME280;6861;46.170;7.222;2023-11-19T03:20:29;96522.50;;;7.81;65.07
13581;BME280;6861;46.170;7.222;2023-11-19T03:22:58;96520.38;;;7.78;65.86
13581;BME280;6861;46.170;7.222;2023-11-19T03:25:27;96509.72;;;7.79;65.12
13581;BME280;6861;46.170;7.222;2023-11-19T03:28:00;96512.72;;;7.71;65.41
13581;BME280;6861;46.170;7.222;2023-11-19T03:30:29;96497.53;;;7.68;65.98
13581;BME280;6861;46.170;7.222;2023-11-19T03:33:02;96499.28;;;7.63;65.28
13581;BME280;6861;46.170;7.222;2023-11-19T03:35:31;96519.31;;;7.62;65.84
13581;BME280;6861;46.170;7.222;2023-11-19T03:38:00;96503.56;;;7.69;65.17
13581;BME280;6861;46.170;7.222;2023-11-19T03:40:29;96500.25;;;7.73;65.84
13581;BME280;6861;46.170;7.222;2023-11-19T03:42:57;96495.66;;;7.80;65.19
13581;BME280;6861;46.170;7.222;2023-11-19T03:45:26;96496.38;;;7.76;66.15
13581;BME280;6861;46.170;7.222;2023-11-19T03:47:54;96479.09;;;7.70;65.97
13581;BME280;6861;46.170;7.222;2023-11-19T03:50:24;96485.31;;;7.69;66.56
13581;BME280;6861;46.170;7.222;2023-11-19T03:52:52;96490.75;;;7.67;66.50
13581;BME280;6861;46.170;7.222;2023-11-19T03:55:20;96487.00;;;7.75;66.57
13581;BME280;6861;46.170;7.222;2023-11-19T03:57:49;96478.84;;;7.71;66.28
13581;BME280;6861;46.170;7.222;2023-11-19T04:00:17;96480.91;;;7.69;66.53
13581;BME280;6861;46.170;7.222;2023-11-19T04:02:48;96486.00;;;7.64;66.15
13581;BME280;6861;46.170;7.222;2023-11-19T04:05:16;96488.19;;;7.55;65.85
13581;BME280;6861;46.170;7.222;2023-11-19T04:07:47;96489.44;;;7.53;65.51
13581;BME280;6861;46.170;7.222;2023-11-19T04:10:15;96487.88;;;7.52;65.46
13581;BME280;6861;46.170;7.222;2023-11-19T04:12:45;96490.38;;;7.47;65.53
13581;BME280;6861;46.170;7.222;2023-11-19T04:15:14;96484.28;;;7.41;65.94
13581;BME280;6861;46.170;7.222;2023-11-19T04:17:42;96485.06;;;7.42;65.73
13581;BME280;6861;46.170;7.222;2023-11-19T04:20:11;96478.94;;;7.48;67.00
13581;BME280;6861;46.170;7.222;2023-11-19T04:22:41;96470.66;;;7.51;65.62
13581;BME280;6861;46.170;7.222;2023-11-19T04:25:11;96481.22;;;7.44;65.99
13581;BME280;6861;46.170;7.222;2023-11-19T04:27:40;96483.59;;;7.46;65.66
13581;BME280;6861;46.170;7.222;2023-11-19T04:30:10;96488.34;;;7.49;66.15
13581;BME280;6861;46.170;7.222;2023-11-19T04:32:38;96482.13;;;7.38;66.38
13581;BME280;6861;46.170;7.222;2023-11-19T04:35:07;96477.19;;;7.25;66.05
13581;BME280;6861;46.170;7.222;2023-11-19T04:37:36;96490.09;;;7.20;66.35
13581;BME280;6861;46.170;7.222;2023-11-19T04:40:06;96485.13;;;7.18;67.07
13581;BME280;6861;46.170;7.222;2023-11-19T04:42:36;96507.53;;;7.19;67.25
13581;BME280;6861;46.170;7.222;2023-11-19T04:45:05;96508.56;;;7.18;67.85
13581;BME280;6861;46.170;7.222;2023-11-19T04:47:34;96505.72;;;7.20;66.58
13581;BME280;6861;46.170;7.222;2023-11-19T04:50:02;96513.41;;;7.27;66.42
13581;BME280;6861;46.170;7.222;2023-11-19T04:52:31;96526.63;;;7.37;66.79
13581;BME280;6861;46.170;7.222;2023-11-19T04:54:59;96507.59;;;7.48;67.17
13581;BME280;6861;46.170;7.222;2023-11-19T04:57:27;96497.03;;;7.54;66.46
13581;BME280;6861;46.170;7.222;2023-11-19T04:59:57;96492.47;;;7.62;67.18
13581;BME280;6861;46.170;7.222;2023-11-19T05:02:25;96488.72;;;7.69;67.01
13581;BME280;6861;46.170;7.222;2023-11-19T05:04:53;96491.09;;;7.71;66.14
13581;BME280;6861;46.170;7.222;2023-11-19T05:07:22;96475.59;;;7.64;66.92
13581;BME280;6861;46.170;7.222;2023-11-19T05:09:50;96473.28;;;7.51;66.04
13581;BME280;6861;46.170;7.222;2023-11-19T05:12:18;96479.41;;;7.45;66.29
13581;BME280;6861;46.170;7.222;2023-11-19T05:14:46;96475.22;;;7.44;66.89
13581;BME280;6861;46.170;7.222;2023-11-19T05:17:18;96475.13;;;7.39;67.22
13581;BME280;6861;46.170;7.222;2023-11-19T05:19:47;96463.03;;;7.33;66.38
13581;BME280;6861;46.170;7.222;2023-11-19T05:22:16;96467.13;;;7.29;66.54
13581;BME280;6861;46.170;7.222;2023-11-19T05:24:45;96458.38;;;7.35;66.53
13581;BME280;6861;46.170;7.222;2023-11-19T05:27:15;96465.25;;;7.41;67.44
13581;BME280;6861;46.170;7.222;2023-11-19T05:29:43;96460.16;;;7.46;66.71
13581;BME280;6861;46.170;7.222;2023-11-19T05:32:11;96454.47;;;7.49;66.34
13581;BME280;6861;46.170;7.222;2023-11-19T05:34:41;96457.31;;;7.47;66.69
13581;BME280;6861;46.170;7.222;2023-11-19T05:37:12;96449.66;;;7.41;67.13
13581;BME280;6861;46.170;7.222;2023-11-19T05:39:41;96450.56;;;7.35;67.32
13581;BME280;6861;46.170;7.222;2023-11-19T05:42:10;96457.69;;;7.39;67.13
13581;BME280;6861;46.170;7.222;2023-11-19T05:44:38;96450.56;;;7.35;66.27
13581;BME280;6861;46.170;7.222;2023-11-19T05:47:07;96445.59;;;7.33;67.10
13581;BME280;6861;46.170;7.222;2023-11-19T05:49:36;96435.97;;;7.34;67.64
13581;BME280;6861;46.170;7.222;2023-11-19T05:52:06;96430.88;;;7.39;66.79
13581;BME280;6861;46.170;7.222;2023-11-19T05:54:36;96431.88;;;7.38;66.87
13581;BME280;6861;46.170;7.222;2023-11-19T05:57:05;96431.66;;;7.39;66.44
13581;BME280;6861;46.170;7.222;2023-11-19T05:59:36;96428.72;;;7.36;66.63
13581;BME280;6861;46.170;7.222;2023-11-19T06:02:04;96427.59;;;7.32;67.13
13581;BME280;6861;46.170;7.222;2023-11-19T06:04:33;96413.94;;;7.24;66.48
13581;BME280;6861;46.170;7.222;2023-11-19T06:07:01;96419.38;;;7.23;66.49
13581;BME280;6861;46.170;7.222;2023-11-19T06:09:31;96431.13;;;7.26;67.33
13581;BME280;6861;46.170;7.222;2023-11-19T06:12:00;96423.78;;;7.22;66.83
13581;BME280;6861;46.170;7.222;2023-11-19T06:14:30;96426.84;;;7.19;67.28
13581;BME280;6861;46.170;7.222;2023-11-19T06:16:58;96415.78;;;7.12;67.56
13581;BME280;6861;46.170;7.222;2023-11-19T06:19:27;96414.53;;;7.15;68.24
13581;BME280;6861;46.170;7.222;2023-11-19T06:21:56;96417.56;;;7.23;67.16
13581;BME280;6861;46.170;7.222;2023-11-19T06:24:25;96422.97;;;7.34;68.07
13581;BME280;6861;46.170;7.222;2023-11-19T06:26:54;96417.94;;;7.44;67.79
13581;BME280;6861;46.170;7.222;2023-11-19T06:29:23;96415.91;;;7.46;67.66
13581;BME280;6861;46.170;7.222;2023-11-19T06:31:51;96443.50;;;7.47;66.53
13581;BME280;6861;46.170;7.222;2023-11-19T06:34:19;96434.69;;;7.48;67.55
13581;BME280;6861;46.170;7.222;2023-11-19T06:36:47;96422.13;;;7.45;66.74
13581;BME280;6861;46.170;7.222;2023-11-19T06:39:16;96414.31;;;7.45;66.13
13581;BME280;6861;46.170;7.222;2023-11-19T06:41:45;96417.00;;;7.50;67.37
13581;BME280;6861;46.170;7.222;2023-11-19T06:44:15;96417.00;;;7.50;67.13
13581;BME280;6861;46.170;7.222;2023-11-19T06:46:44;96424.13;;;7.54;66.23
13581;BME280;6861;46.170;7.222;2023-11-19T06:49:12;96412.44;;;7.57;66.19
13581;BME280;6861;46.170;7.222;2023-11-19T06:51:41;96417.19;;;7.60;67.19
13581;BME280;6861;46.170;7.222;2023-11-19T06:54:10;96411.50;;;7.63;66.11
13581;BME280;6861;46.170;7.222;2023-11-19T06:56:39;96406.94;;;7.70;66.59
13581;BME280;6861;46.170;7.222;2023-11-19T06:59:08;96408.53;;;7.71;66.07
13581;BME280;6861;46.170;7.222;2023-11-19T07:01:38;96415.78;;;7.69;66.42
13581;BME280;6861;46.170;7.222;2023-11-19T07:04:10;96406.94;;;7.70;66.72
13581;BME280;6861;46.170;7.222;2023-11-19T07:06:39;96406.38;;;7.68;66.35
13581;BME280;6861;46.170;7.222;2023-11-19T07:09:08;96398.03;;;7.66;66.67
13581;BME280;6861;46.170;7.222;2023-11-19T07:11:38;96397.69;;;7.63;65.42
13581;BME280;6861;46.170;7.222;2023-11-19T07:14:07;96400.44;;;7.56;66.65
13581;BME280;6861;46.170;7.222;2023-11-19T07:16:38;96397.53;;;7.52;65.58
13581;BME280;6861;46.170;7.222;2023-11-19T07:19:06;96388.13;;;7.51;65.87
13581;BME280;6861;46.170;7.222;2023-11-19T07:21:35;96405.88;;;7.54;67.05
13581;BME280;6861;46.170;7.222;2023-11-19T07:24:06;96401.56;;;7.60;66.52
13581;BME280;6861;46.170;7.222;2023-11-19T07:26:36;96414.81;;;7.59;66.41
13581;BME280;6861;46.170;7.222;2023-11-19T07:29:05;96392.09;;;7.54;65.93
13581;BME280;6861;46.170;7.222;2023-11-19T07:31:34;96389.41;;;7.66;66.12
13581;BME280;6861;46.170;7.222;2023-11-19T07:34:04;96398.09;;;7.71;66.13
13581;BME280;6861;46.170;7.222;2023-11-19T07:36:33;96398.44;;;7.75;66.32
13581;BME280;6861;46.170;7.222;2023-11-19T07:39:03;96394.94;;;7.86;66.03
13581;BME280;6861;46.170;7.222;2023-11-19T07:41:31;96394.31;;;7.96;66.27
13581;BME280;6861;46.170;7.222;2023-11-19T07:44:00;96400.47;;;8.06;65.02
13581;BME280;6861;46.170;7.222;2023-11-19T07:46:28;96410.19;;;8.11;64.94
13581;BME280;6861;46.170;7.222;2023-11-19T07:48:57;96405.81;;;8.16;65.91
13581;BME280;6861;46.170;7.222;2023-11-19T07:51:26;96411.44;;;8.25;65.82
13581;BME280;6861;46.170;7.222;2023-11-19T07:53:54;96422.28;;;8.34;64.88
13581;BME280;6861;46.170;7.222;2023-11-19T07:56:23;96428.91;;;8.41;64.92
13581;BME280;6861;46.170;7.222;2023-11-19T07:58:51;96432.69;;;8.50;64.76
13581;BME280;6861;46.170;7.222;2023-11-19T08:01:20;96432.22;;;8.53;64.95
13581;BME280;6861;46.170;7.222;2023-11-19T08:03:50;96427.56;;;8.56;65.14
13581;BME280;6861;46.170;7.222;2023-11-19T08:06:21;96433.44;;;8.68;64.48
13581;BME280;6861;46.170;7.222;2023-11-19T08:08:51;96437.19;;;8.77;65.09
13581;BME280;6861;46.170;7.222;2023-11-19T08:11:19;96431.56;;;8.85;64.60
13581;BME280;6861;46.170;7.222;2023-11-19T08:13:48;96442.69;;;8.97;64.62
13581;BME280;6861;46.170;7.222;2023-11-19T08:16:16;96450.72;;;9.12;64.23
13581;BME280;6861;46.170;7.222;2023-11-19T08:18:44;96447.13;;;9.18;63.44
13581;BME280;6861;46.170;7.222;2023-11-19T08:21:13;96450.84;;;9.23;63.91
13581;BME280;6861;46.170;7.222;2023-11-19T08:23:41;96452.41;;;9.24;63.56
13581;BME280;6861;46.170;7.222;2023-11-19T08:26:11;96440.69;;;9.26;63.70
13581;BME280;6861;46.170;7.222;2023-11-19T08:28:40;96454.53;;;9.27;64.11
13581;BME280;6861;46.170;7.222;2023-11-19T08:31:08;96454.84;;;9.30;63.80
13581;BME280;6861;46.170;7.222;2023-11-19T08:33:36;96457.19;;;9.32;63.87
13581;BME280;6861;46.170;7.222;2023-11-19T08:36:05;96472.38;;;9.35;63.78
13581;BME280;6861;46.170;7.222;2023-11-19T08:38:33;96488.59;;;9.37;63.95
13581;BME280;6861;46.170;7.222;2023-11-19T08:41:01;96481.50;;;9.32;63.65
13581;BME280;6861;46.170;7.222;2023-11-19T08:43:31;96475.38;;;9.22;63.68
13581;BME280;6861;46.170;7.222;2023-11-19T08:45:59;96463.75;;;9.12;64.58
13581;BME280;6861;46.170;7.222;2023-11-19T08:48:27;96472.69;;;9.16;64.20
13581;BME280;6861;46.170;7.222;2023-11-19T08:50:55;96485.00;;;9.21;64.62
13581;BME280;6861;46.170;7.222;2023-11-19T08:53:23;96477.13;;;9.16;64.86
13581;BME280;6861;46.170;7.222;2023-11-19T08:55:52;96489.31;;;9.10;64.80
13581;BME280;6861;46.170;7.222;2023-11-19T08:58:20;96486.41;;;9.07;64.68
13581;BME280;6861;46.170;7.222;2023-11-19T09:00:50;96472.25;;;9.03;65.18
13581;BME280;6861;46.170;7.222;2023-11-19T09:03:18;96468.72;;;8.92;65.30
13581;BME280;6861;46.170;7.222;2023-11-19T09:05:47;96458.88;;;8.77;65.43
13581;BME280;6861;46.170;7.222;2023-11-19T09:08:15;96456.44;;;8.71;65.70
13581;BME280;6861;46.170;7.222;2023-11-19T09:10:44;96451.84;;;8.78;65.54
13581;BME280;6861;46.170;7.222;2023-11-19T09:13:12;96467.06;;;8.86;65.48
13581;BME280;6861;46.170;7.222;2023-11-19T09:15:42;96479.63;;;8.89;65.60
13581;BME280;6861;46.170;7.222;2023-11-19T09:18:11;96476.84;;;8.96;66.01
13581;BME280;6861;46.170;7.222;2023-11-19T09:20:40;96483.41;;;8.98;66.12
13581;BME280;6861;46.170;7.222;2023-11-19T09:23:08;96475.09;;;9.01;65.85
13581;BME280;6861;46.170;7.222;2023-11-19T09:25:37;96485.06;;;9.04;65.76
13581;BME280;6861;46.170;7.222;2023-11-19T09:28:08;96480.81;;;8.98;65.79
13581;BME280;6861;46.170;7.222;2023-11-19T09:30:36;96487.06;;;8.97;66.58
13581;BME280;6861;46.170;7.222;2023-11-19T09:33:05;96491.88;;;9.05;66.15
13581;BME280;6861;46.170;7.222;2023-11-19T09:35:35;96480.63;;;9.05;66.22
13581;BME280;6861;46.170;7.222;2023-11-19T09:38:04;96493.06;;;8.98;66.07
13581;BME280;6861;46.170;7.222;2023-11-19T09:40:33;96485.97;;;8.93;66.42
13581;BME280;6861;46.170;7.222;2023-11-19T09:43:02;96486.38;;;8.85;66.70
13581;BME280;6861;46.170;7.222;2023-11-19T09:45:32;96491.84;;;8.83;67.11
13581;BME280;6861;46.170;7.222;2023-11-19T09:48:05;96489.63;;;8.75;66.96
13581;BME280;6861;46.170;7.222;2023-11-19T09:50:36;96493.03;;;8.76;67.35
13581;BME280;6861;46.170;7.222;2023-11-19T09:53:04;96489.38;;;8.77;67.55
13581;BME280;6861;46.170;7.222;2023-11-19T09:55:33;96473.31;;;8.85;67.06
13581;BME280;6861;46.170;7.222;2023-11-19T09:58:01;96473.69;;;8.94;66.81
13581;BME280;6861;46.170;7.222;2023-11-19T10:00:30;96481.03;;;8.97;66.69
13581;BME280;6861;46.170;7.222;2023-11-19T10:02:59;96486.03;;;8.98;67.02
13581;BME280;6861;46.170;7.222;2023-11-19T10:05:27;96474.50;;;8.94;66.51
13581;BME280;6861;46.170;7.222;2023-11-19T10:07:57;96485.53;;;9.01;66.80
13581;BME280;6861;46.170;7.222;2023-11-19T10:10:25;96497.09;;;9.05;67.30
13581;BME280;6861;46.170;7.222;2023-11-19T10:12:55;96499.28;;;9.13;67.04
13581;BME280;6861;46.170;7.222;2023-11-19T10:15:24;96497.34;;;9.26;66.47
13581;BME280;6861;46.170;7.222;2023-11-19T10:17:55;96491.69;;;9.34;66.80
13581;BME280;6861;46.170;7.222;2023-11-19T10:20:24;96491.75;;;9.39;66.52
13581;BME280;6861;46.170;7.222;2023-11-19T10:22:53;96475.72;;;9.52;66.59
13581;BME280;6861;46.170;7.222;2023-11-19T10:25:24;96465.88;;;9.64;66.19
13581;BME280;6861;46.170;7.222;2023-11-19T10:27:53;96463.38;;;9.74;66.01
13581;BME280;6861;46.170;7.222;2023-11-19T10:30:22;96463.47;;;9.84;65.87
13581;BME280;6861;46.170;7.222;2023-11-19T10:33:03;96455.19;;;9.93;65.68
13581;BME280;6861;46.170;7.222;2023-11-19T10:35:33;96460.00;;;10.06;65.17
13581;BME280;6861;46.170;7.222;2023-11-19T10:38:01;96466.63;;;10.13;65.45
13581;BME280;6861;46.170;7.222;2023-11-19T10:40:42;96461.22;;;10.20;65.21
13581;BME280;6861;46.170;7.222;2023-11-19T10:43:11;96439.19;;;10.16;65.62
13581;BME280;6861;46.170;7.222;2023-11-19T10:45:39;96437.22;;;10.28;65.23
13581;BME280;6861;46.170;7.222;2023-11-19T10:48:08;96433.84;;;10.33;65.33
13581;BME280;6861;46.170;7.222;2023-11-19T10:50:37;96441.47;;;10.44;65.25
13581;BME280;6861;46.170;7.222;2023-11-19T10:53:08;96432.13;;;10.54;65.27
13581;BME280;6861;46.170;7.222;2023-11-19T10:55:37;96425.84;;;10.55;64.74
13581;BME280;6861;46.170;7.222;2023-11-19T10:58:09;96421.91;;;10.52;64.77
13581;BME280;6861;46.170;7.222;2023-11-19T11:00:38;96406.00;;;10.59;64.58
13581;BME280;6861;46.170;7.222;2023-11-19T11:03:11;96399.78;;;10.75;65.10
13581;BME280;6861;46.170;7.222;2023-11-19T11:05:43;96396.13;;;10.71;64.49
13581;BME280;6861;46.170;7.222;2023-11-19T11:08:14;96419.38;;;10.67;64.91
13581;BME280;6861;46.170;7.222;2023-11-19T11:10:45;96429.06;;;10.67;64.59
13581;BME280;6861;46.170;7.222;2023-11-19T11:13:18;96434.50;;;10.55;64.75
13581;BME280;6861;46.170;7.222;2023-11-19T11:15:46;96438.94;;;10.55;64.76
13581;BME280;6861;46.170;7.222;2023-11-19T11:18:15;96446.72;;;10.44;65.09
13581;BME280;6861;46.170;7.222;2023-11-19T11:20:44;96459.78;;;10.39;64.85
13581;BME280;6861;46.170;7.222;2023-11-19T11:26:46;96446.22;;;10.47;64.85
13581;BME280;6861;46.170;7.222;2023-11-19T11:29:27;96428.47;;;10.55;64.99
13581;BME280;6861;46.170;7.222;2023-11-19T11:32:08;96422.22;;;10.61;64.44
13581;BME280;6861;46.170;7.222;2023-11-19T11:34:57;96441.09;;;10.68;64.77
13581;BME280;6861;46.170;7.222;2023-11-19T11:37:33;96450.56;;;10.74;64.54
13581;BME280;6861;46.170;7.222;2023-11-19T11:40:03;96462.63;;;10.75;64.64
13581;BME280;6861;46.170;7.222;2023-11-19T11:42:37;96450.53;;;10.69;64.41
13581;BME280;6861;46.170;7.222;2023-11-19T11:45:09;96446.84;;;10.65;64.80
13581;BME280;6861;46.170;7.222;2023-11-19T11:50:51;96453.16;;;10.69;64.97
13581;BME280;6861;46.170;7.222;2023-11-19T11:53:21;96457.38;;;10.75;64.77
13581;BME280;6861;46.170;7.222;2023-11-19T11:55:55;96440.66;;;10.81;64.51
13581;BME280;6861;46.170;7.222;2023-11-19T11:58:31;96425.78;;;10.92;64.54
13581;BME280;6861;46.170;7.222;2023-11-19T12:01:03;96431.06;;;11.02;65.12
13581;BME280;6861;46.170;7.222;2023-11-19T12:03:33;96438.16;;;11.06;64.57
13581;BME280;6861;46.170;7.222;2023-11-19T12:06:02;96440.53;;;11.08;64.49
13581;BME280;6861;46.170;7.222;2023-11-19T12:08:34;96446.06;;;11.11;64.95
13581;BME280;6861;46.170;7.222;2023-11-19T12:11:19;96444.47;;;11.10;64.69
13581;BME280;6861;46.170;7.222;2023-11-19T12:13:55;96448.13;;;11.09;64.64
13581;BME280;6861;46.170;7.222;2023-11-19T12:16:28;96460.69;;;11.07;65.25
13581;BME280;6861;46.170;7.222;2023-11-19T12:19:02;96453.34;;;11.04;64.64
13581;BME280;6861;46.170;7.222;2023-11-19T12:21:32;96458.84;;;11.03;65.14
13581;BME280;6861;46.170;7.222;2023-11-19T12:24:06;96457.28;;;11.02;65.12
13581;BME280;6861;46.170;7.222;2023-11-19T12:26:38;96459.34;;;11.00;65.05
13581;BME280;6861;46.170;7.222;2023-11-19T12:29:07;96461.69;;;10.96;65.16
13581;BME280;6861;46.170;7.222;2023-11-19T12:31:38;96448.31;;;10.93;65.43
13581;BME280;6861;46.170;7.222;2023-11-19T12:34:07;96447.25;;;10.89;65.25
13581;BME280;6861;46.170;7.222;2023-11-19T12:36:40;96455.88;;;10.84;65.35
13581;BME280;6861;46.170;7.222;2023-11-19T12:39:10;96434.13;;;10.83;65.93
13581;BME280;6861;46.170;7.222;2023-11-19T12:41:51;96442.25;;;10.82;65.47
13581;BME280;6861;46.170;7.222;2023-11-19T12:44:20;96442.22;;;10.77;65.64
13581;BME280;6861;46.170;7.222;2023-11-19T12:47:04;96440.59;;;10.71;65.70
13581;BME280;6861;46.170;7.222;2023-11-19T12:49:34;96448.47;;;10.71;65.75
13581;BME280;6861;46.170;7.222;2023-11-19T12:52:10;96458.44;;;10.79;65.54
13581;BME280;6861;46.170;7.222;2023-11-19T12:54:39;96458.47;;;10.84;65.37
13581;BME280;6861;46.170;7.222;2023-11-19T12:57:07;96433.63;;;10.87;65.17
13581;BME280;6861;46.170;7.222;2023-11-19T12:59:36;96427.09;;;10.89;64.89
13581;BME280;6861;46.170;7.222;2023-11-19T13:02:05;96430.25;;;10.91;64.97
13581;BME280;6861;46.170;7.222;2023-11-19T13:04:34;96427.13;;;10.99;65.71
13581;BME280;6861;46.170;7.222;2023-11-19T13:07:03;96434.00;;;11.10;64.93
13581;BME280;6861;46.170;7.222;2023-11-19T13:09:32;96426.94;;;11.11;65.20
13581;BME280;6861;46.170;7.222;2023-11-19T13:12:12;96408.56;;;11.01;65.15
13581;BME280;6861;46.170;7.222;2023-11-19T13:14:41;96413.97;;;10.84;65.26
13581;BME280;6861;46.170;7.222;2023-11-19T13:17:15;96414.47;;;10.81;65.92
13581;BME280;6861;46.170;7.222;2023-11-19T13:19:47;96404.53;;;10.78;65.74
13581;BME280;6861;46.170;7.222;2023-11-19T13:22:17;96393.50;;;10.71;65.81
13581;BME280;6861;46.170;7.222;2023-11-19T13:24:46;96392.72;;;10.75;65.71
13581;BME280;6861;46.170;7.222;2023-11-19T13:27:14;96390.94;;;10.86;65.47
13581;BME280;6861;46.170;7.222;2023-11-19T13:29:43;96385.47;;;10.93;65.59
13581;BME280;6861;46.170;7.222;2023-11-19T13:32:11;96387.84;;;10.94;65.54
13581;BME280;6861;46.170;7.222;2023-11-19T13:34:41;96398.34;;;11.04;65.17
13581;BME280;6861;46.170;7.222;2023-11-19T13:37:09;96389.72;;;11.09;65.68
13581;BME280;6861;46.170;7.222;2023-11-19T13:39:41;96401.78;;;11.10;65.19